sensor_id;sensor_type;location;lat;lon;timestamp;pressure;altitude;pressure_sealevel;temperature;humidity
28935;BME280;16044;52.726;-2.108;2023-09-30T00:02:12;101455.81;;;11.25;100.00
28935;BME280;16044;52.726;-2.108;2023-09-30T00:04:42;101461.75;;;11.28;100.00
28935;BME280;16044;52.726;-2.108;2023-09-30T00:07:13;101469.38;;;11.25;100.00
28935;BME280;16044;52.726;-2.108;2023-09-30T00:09:45;101474.81;;;11.25;100.00
28935;BME280;16044;52.726;-2.108;2023-09-30T00:12:17;101473.09;;;11.24;100.00
28935;BME280;16044;52.726;-2.108;2023-09-30T00:14:48;101470.38;;;11.24;100.00
28935;BME280;16044;52.726;-2.108;2023-09-30T00:17:18;101475.66;;;11.25;100.00
28935;BME280;16044;52.726;-2.108;2023-09-30T00:19:49;101472.78;;;11.27;100.00
28935;BME280;16044;52.726;-2.108;2023-09-30T00:22:19;101473.63;;;11.27;100.00
28935;BME280;16044;52.726;-2.108;2023-09-30T00:24:52;101469.22;;;11.26;100.00
28935;BME280;16044;52.726;-2.108;2023-09-30T00:27:22;101466.69;;;11.25;100.00
28935;BME280;16044;52.726;-2.108;2023-09-30T00:29:53;101467.66;;;11.24;100.00
28935;BME280;16044;52.726;-2.108;2023-09-30T00:32:25;101454.78;;;11.26;100.00
28935;BME280;16044;52.726;-2.108;2023-09-30T00:34:56;101456.50;;;11.27;100.00
28935;BME280;16044;52.726;-2.108;2023-09-30T00:37:26;101452.22;;;11.24;100.00
28935;BME280;16044;52.726;-2.108;2023-09-30T00:39:59;101458.53;;;11.25;100.00
28935;BME280;16044;52.726;-2.108;2023-09-30T00:42:31;101470.09;;;11.27;100.00
28935;BME280;16044;52.726;-2.108;2023-09-30T00:45:01;101466.34;;;11.28;100.00
28935;BME280;16044;52.726;-2.108;2023-09-30T00:47:33;101460.22;;;11.26;100.00
28935;BME280;16044;52.726;-2.108;2023-09-30T00:50:05;101461.25;;;11.25;100.00
28935;BME280;16044;52.726;-2.108;2023-09-30T00:52:38;101460.06;;;11.27;100.00
28935;BME280;16044;52.726;-2.108;2023-09-30T00:55:12;101471.06;;;11.26;100.00
28935;BME280;16044;52.726;-2.108;2023-09-30T00:57:42;101461.06;;;11.26;100.00
28935;BME280;16044;52.726;-2.108;2023-09-30T01:00:14;101472.78;;;11.27;100.00
28935;BME280;16044;52.726;-2.108;2023-09-30T01:02:46;101459.22;;;11.27;100.00
28935;BME280;16044;52.726;-2.108;2023-09-30T01:05:17;101454.63;;;11.27;100.00
28935;BME280;16044;52.726;-2.108;2023-09-30T01:07:47;101461.94;;;11.27;100.00
28935;BME280;16044;52.726;-2.108;2023-09-30T01:10:20;101449.38;;;11.26;100.00
28935;BME280;16044;52.726;-2.108;2023-09-30T01:12:50;101450.22;;;11.26;100.00
28935;BME280;16044;52.726;-2.108;2023-09-30T01:15:21;101446.66;;;11.26;100.00
28935;BME280;16044;52.726;-2.108;2023-09-30T01:17:51;101449.38;;;11.26;100.00
28935;BME280;16044;52.726;-2.108;2023-09-30T01:20:22;101446.66;;;11.26;100.00
28935;BME280;16044;52.726;-2.108;2023-09-30T01:22:57;101446.81;;;11.24;100.00
28935;BME280;16044;52.726;-2.108;2023-09-30T01:25:27;101447.97;;;11.22;100.00
28935;BME280;16044;52.726;-2.108;2023-09-30T01:27:58;101450.69;;;11.22;100.00
28935;BME280;16044;52.726;-2.108;2023-09-30T01:30:34;101441.72;;;11.21;100.00
28935;BME280;16044;52.726;-2.108;2023-09-30T01:33:05;101446.25;;;11.21;100.00
28935;BME280;16044;52.726;-2.108;2023-09-30T01:35:35;101445.41;;;11.20;100.00
28935;BME280;16044;52.726;-2.108;2023-09-30T01:38:08;101440.84;;;11.21;100.00
28935;BME280;16044;52.726;-2.108;2023-09-30T01:40:39;101435.41;;;11.21;100.00
28935;BME280;16044;52.726;-2.108;2023-09-30T01:43:10;101423.56;;;11.22;100.00
28935;BME280;16044;52.726;-2.108;2023-09-30T01:45:41;101428.00;;;11.23;100.00
28935;BME280;16044;52.726;-2.108;2023-09-30T01:48:12;101422.72;;;11.21;100.00
28935;BME280;16044;52.726;-2.108;2023-09-30T01:50:43;101432.38;;;11.24;100.00
28935;BME280;16044;52.726;-2.108;2023-09-30T01:53:16;101427.13;;;11.22;100.00
28935;BME280;16044;52.726;-2.108;2023-09-30T01:55:46;101419.84;;;11.23;100.00
28935;BME280;16044;52.726;-2.108;2023-09-30T01:58:16;101411.72;;;11.23;100.00
28935;BME280;16044;52.726;-2.108;2023-09-30T02:00:47;101411.72;;;11.23;100.00
28935;BME280;16044;52.726;-2.108;2023-09-30T02:03:17;101417.97;;;11.23;100.00
28935;BME280;16044;52.726;-2.108;2023-09-30T02:05:48;101423.41;;;11.23;100.00
28935;BME280;16044;52.726;-2.108;2023-09-30T02:08:21;101419.66;;;11.24;100.00
28935;BME280;16044;52.726;-2.108;2023-09-30T02:10:51;101418.81;;;11.24;100.00
28935;BME280;16044;52.726;-2.108;2023-09-30T02:13:22;101428.69;;;11.25;100.00
28935;BME280;16044;52.726;-2.108;2023-09-30T02:15:52;101439.69;;;11.23;100.00
28935;BME280;16044;52.726;-2.108;2023-09-30T02:18:23;101437.81;;;11.24;100.00
28935;BME280;16044;52.726;-2.108;2023-09-30T02:20:53;101448.53;;;11.25;100.00
28935;BME280;16044;52.726;-2.108;2023-09-30T02:23:26;101441.22;;;11.26;100.00
28935;BME280;16044;52.726;-2.108;2023-09-30T02:25:56;101447.50;;;11.26;100.00
28935;BME280;16044;52.726;-2.108;2023-09-30T02:28:27;101438.50;;;11.26;100.00
28935;BME280;16044;52.726;-2.108;2023-09-30T02:30:59;101430.38;;;11.26;100.00
28935;BME280;16044;52.726;-2.108;2023-09-30T02:33:30;101425.78;;;11.26;100.00
28935;BME280;16044;52.726;-2.108;2023-09-30T02:36:02;101420.53;;;11.25;100.00
28935;BME280;16044;52.726;-2.108;2023-09-30T02:38:36;101423.41;;;11.23;100.00
28935;BME280;16044;52.726;-2.108;2023-09-30T02:41:07;101421.53;;;11.24;100.00
28935;BME280;16044;52.726;-2.108;2023-09-30T02:43:38;101422.56;;;11.23;100.00
28935;BME280;16044;52.726;-2.108;2023-09-30T02:46:08;101435.09;;;11.24;100.00
28935;BME280;16044;52.726;-2.108;2023-09-30T02:48:39;101428.69;;;11.25;100.00
28935;BME280;16044;52.726;-2.108;2023-09-30T02:51:10;101425.44;;;11.21;100.00
28935;BME280;16044;52.726;-2.108;2023-09-30T02:53:44;101413.69;;;11.21;100.00
28935;BME280;16044;52.726;-2.108;2023-09-30T02:56:15;101400.13;;;11.21;100.00
28935;BME280;16044;52.726;-2.108;2023-09-30T02:58:46;101406.59;;;11.20;100.00
28935;BME280;16044;52.726;-2.108;2023-09-30T03:01:16;101411.16;;;11.19;100.00
28935;BME280;16044;52.726;-2.108;2023-09-30T03:03:48;101405.91;;;11.18;100.00
28935;BME280;16044;52.726;-2.108;2023-09-30T03:06:18;101414.03;;;11.18;100.00
28935;BME280;16044;52.726;-2.108;2023-09-30T03:08:51;101418.78;;;11.16;100.00
28935;BME280;16044;52.726;-2.108;2023-09-30T03:11:21;101407.22;;;11.14;100.00
28935;BME280;16044;52.726;-2.108;2023-09-30T03:13:54;101408.38;;;11.11;100.00
28935;BME280;16044;52.726;-2.108;2023-09-30T03:16:25;101421.94;;;11.11;100.00
28935;BME280;16044;52.726;-2.108;2023-09-30T03:18:57;101442.94;;;11.09;100.00
28935;BME280;16044;52.726;-2.108;2023-09-30T03:21:32;101430.41;;;11.08;100.00
28935;BME280;16044;52.726;-2.108;2023-09-30T03:24:06;101419.72;;;11.06;100.00
28935;BME280;16044;52.726;-2.108;2023-09-30T03:26:38;101421.88;;;11.03;100.00
28935;BME280;16044;52.726;-2.108;2023-09-30T03:29:09;101427.31;;;11.03;100.00
28935;BME280;16044;52.726;-2.108;2023-09-30T03:31:40;101414.91;;;11.00;100.00
28935;BME280;16044;52.726;-2.108;2023-09-30T03:34:12;101401.50;;;10.99;100.00
28935;BME280;16044;52.726;-2.108;2023-09-30T03:36:43;101386.38;;;10.96;100.00
28935;BME280;16044;52.726;-2.108;2023-09-30T03:39:16;101403.69;;;10.95;100.00
28935;BME280;16044;52.726;-2.108;2023-09-30T03:41:54;101419.94;;;10.95;100.00
28935;BME280;16044;52.726;-2.108;2023-09-30T03:44:26;101404.66;;;10.94;100.00
28935;BME280;16044;52.726;-2.108;2023-09-30T03:46:56;101418.22;;;10.94;100.00
28935;BME280;16044;52.726;-2.108;2023-09-30T03:49:28;101427.41;;;10.93;100.00
28935;BME280;16044;52.726;-2.108;2023-09-30T03:51:59;101438.25;;;10.93;100.00
28935;BME280;16044;52.726;-2.108;2023-09-30T03:54:32;101446.53;;;10.91;100.00
28935;BME280;16044;52.726;-2.108;2023-09-30T03:57:02;101435.69;;;10.91;100.00
28935;BME280;16044;52.726;-2.108;2023-09-30T03:59:33;101447.72;;;10.89;100.00
28935;BME280;16044;52.726;-2.108;2023-09-30T04:02:03;101446.00;;;10.88;100.00
28935;BME280;16044;52.726;-2.108;2023-09-30T04:04:33;101443.28;;;10.88;100.00
28935;BME280;16044;52.726;-2.108;2023-09-30T04:07:04;101438.00;;;10.86;100.00
28935;BME280;16044;52.726;-2.108;2023-09-30T04:09:39;101437.16;;;10.86;100.00
28935;BME280;16044;52.726;-2.108;2023-09-30T04:12:10;101442.03;;;10.82;100.00
28935;BME280;16044;52.726;-2.108;2023-09-30T04:14:40;101441.88;;;10.84;100.00
28935;BME280;16044;52.726;-2.108;2023-09-30T04:17:10;101447.47;;;10.82;100.00
28935;BME280;16044;52.726;-2.108;2023-09-30T04:19:41;101441.03;;;10.83;100.00
28935;BME280;16044;52.726;-2.108;2023-09-30T04:22:12;101440.50;;;10.80;100.00
28935;BME280;16044;52.726;-2.108;2023-09-30T04:24:46;101433.22;;;10.80;100.00
28935;BME280;16044;52.726;-2.108;2023-09-30T04:27:20;101436.75;;;10.81;100.00
28935;BME280;16044;52.726;-2.108;2023-09-30T04:29:50;101439.47;;;10.81;100.00
28935;BME280;16044;52.726;-2.108;2023-09-30T04:32:21;101431.34;;;10.81;100.00
28935;BME280;16044;52.726;-2.108;2023-09-30T04:34:53;101419.66;;;10.80;100.00
28935;BME280;16044;52.726;-2.108;2023-09-30T04:37:23;101408.94;;;10.79;100.00
28935;BME280;16044;52.726;-2.108;2023-09-30T04:39:56;101391.00;;;10.78;100.00
28935;BME280;16044;52.726;-2.108;2023-09-30T04:42:27;101393.84;;;10.76;100.00
28935;BME280;16044;52.726;-2.108;2023-09-30T04:44:58;101412.16;;;10.74;100.00
28935;BME280;16044;52.726;-2.108;2023-09-30T04:47:29;101413.97;;;10.73;100.00
28935;BME280;16044;52.726;-2.108;2023-09-30T04:49:59;101418.41;;;10.75;100.00
28935;BME280;16044;52.726;-2.108;2023-09-30T04:52:31;101413.13;;;10.73;100.00
28935;BME280;16044;52.726;-2.108;2023-09-30T04:55:05;101396.16;;;10.71;100.00
28935;BME280;16044;52.726;-2.108;2023-09-30T04:57:36;101411.59;;;10.70;100.00
28935;BME280;16044;52.726;-2.108;2023-09-30T05:00:08;101423.28;;;10.71;100.00
28935;BME280;16044;52.726;-2.108;2023-09-30T05:02:40;101410.75;;;10.70;100.00
28935;BME280;16044;52.726;-2.108;2023-09-30T05:05:12;101405.34;;;10.70;100.00
28935;BME280;16044;52.726;-2.108;2023-09-30T05:07:42;101403.63;;;10.69;100.00
28935;BME280;16044;52.726;-2.108;2023-09-30T05:10:16;101401.06;;;10.67;100.00
28935;BME280;16044;52.726;-2.108;2023-09-30T05:12:46;101388.50;;;10.66;100.00
28935;BME280;16044;52.726;-2.108;2023-09-30T05:15:18;101380.53;;;10.65;100.00
28935;BME280;16044;52.726;-2.108;2023-09-30T05:17:50;101381.53;;;10.64;100.00
28935;BME280;16044;52.726;-2.108;2023-09-30T05:20:20;101405.94;;;10.64;100.00
28935;BME280;16044;52.726;-2.108;2023-09-30T05:22:51;101420.50;;;10.63;100.00
28935;BME280;16044;52.726;-2.108;2023-09-30T05:25:24;101415.94;;;10.63;100.00
28935;BME280;16044;52.726;-2.108;2023-09-30T05:27:55;101418.63;;;10.63;100.00
28935;BME280;16044;52.726;-2.108;2023-09-30T05:30:25;101401.69;;;10.61;100.00
28935;BME280;16044;52.726;-2.108;2023-09-30T05:32:55;101406.25;;;10.61;100.00
28935;BME280;16044;52.726;-2.108;2023-09-30T05:35:26;101402.84;;;10.59;100.00
28935;BME280;16044;52.726;-2.108;2023-09-30T05:37:57;101405.72;;;10.57;100.00
28935;BME280;16044;52.726;-2.108;2023-09-30T05:40:30;101411.97;;;10.58;100.00
28935;BME280;16044;52.726;-2.108;2023-09-30T05:43:00;101412.97;;;10.57;100.00
28935;BME280;16044;52.726;-2.108;2023-09-30T05:45:33;101419.41;;;10.56;100.00
28935;BME280;16044;52.726;-2.108;2023-09-30T05:48:04;101419.41;;;10.56;100.00
28935;BME280;16044;52.726;-2.108;2023-09-30T05:50:35;101409.41;;;10.56;100.00
28935;BME280;16044;52.726;-2.108;2023-09-30T05:53:06;101397.88;;;10.54;100.00
28935;BME280;16044;52.726;-2.108;2023-09-30T05:55:40;101404.31;;;10.53;100.00
28935;BME280;16044;52.726;-2.108;2023-09-30T05:58:13;101403.63;;;10.51;100.00
28935;BME280;16044;52.726;-2.108;2023-09-30T06:00:44;101405.47;;;10.50;100.00
28935;BME280;16044;52.726;-2.108;2023-09-30T06:03:15;101409.19;;;10.49;100.00
28935;BME280;16044;52.726;-2.108;2023-09-30T06:05:46;101418.47;;;10.47;100.00
28935;BME280;16044;52.726;-2.108;2023-09-30T06:08:16;101415.06;;;10.45;100.00
28935;BME280;16044;52.726;-2.108;2023-09-30T06:10:50;101432.34;;;10.44;100.00
28935;BME280;16044;52.726;-2.108;2023-09-30T06:13:21;101457.72;;;10.43;100.00
28935;BME280;16044;52.726;-2.108;2023-09-30T06:15:51;101466.88;;;10.42;100.00
28935;BME280;16044;52.726;-2.108;2023-09-30T06:18:22;101455.16;;;10.41;100.00
28935;BME280;16044;52.726;-2.108;2023-09-30T06:20:52;101442.91;;;10.37;100.00
28935;BME280;16044;52.726;-2.108;2023-09-30T06:23:23;101442.06;;;10.37;100.00
28935;BME280;16044;52.726;-2.108;2023-09-30T06:25:56;101443.75;;;10.38;100.00
28935;BME280;16044;52.726;-2.108;2023-09-30T06:28:28;101430.75;;;10.41;100.00
28935;BME280;16044;52.726;-2.108;2023-09-30T06:31:00;101427.75;;;10.44;100.00
28935;BME280;16044;52.726;-2.108;2023-09-30T06:33:31;101432.88;;;10.47;100.00
28935;BME280;16044;52.726;-2.108;2023-09-30T06:36:01;101443.25;;;10.52;100.00
28935;BME280;16044;52.726;-2.108;2023-09-30T06:38:33;101434.84;;;10.55;100.00
28935;BME280;16044;52.726;-2.108;2023-09-30T06:41:06;101443.34;;;10.60;100.00
28935;BME280;16044;52.726;-2.108;2023-09-30T06:43:36;101451.16;;;10.63;100.00
28935;BME280;16044;52.726;-2.108;2023-09-30T06:46:07;101449.84;;;10.67;100.00
28935;BME280;16044;52.726;-2.108;2023-09-30T06:48:38;101440.41;;;10.71;100.00
28935;BME280;16044;52.726;-2.108;2023-09-30T06:51:13;101434.06;;;10.81;100.00
28935;BME280;16044;52.726;-2.108;2023-09-30T06:53:44;101433.44;;;10.87;100.00
28935;BME280;16044;52.726;-2.108;2023-09-30T06:56:18;101435.38;;;10.95;100.00
28935;BME280;16044;52.726;-2.108;2023-09-30T06:58:48;101438.00;;;11.04;100.00
28935;BME280;16044;52.726;-2.108;2023-09-30T07:01:18;101433.81;;;11.10;100.00
28935;BME280;16044;52.726;-2.108;2023-09-30T07:03:49;101435.19;;;11.14;100.00
28935;BME280;16044;52.726;-2.108;2023-09-30T07:06:23;101443.41;;;11.22;100.00
28935;BME280;16044;52.726;-2.108;2023-09-30T07:08:53;101441.91;;;11.28;100.00
28935;BME280;16044;52.726;-2.108;2023-09-30T07:11:30;101430.94;;;11.38;100.00
28935;BME280;16044;52.726;-2.108;2023-09-30T07:14:01;101424.56;;;11.47;100.00
28935;BME280;16044;52.726;-2.108;2023-09-30T07:16:31;101427.03;;;11.58;100.00
28935;BME280;16044;52.726;-2.108;2023-09-30T07:19:02;101435.75;;;11.70;100.00
28935;BME280;16044;52.726;-2.108;2023-09-30T07:21:33;101438.53;;;11.78;100.00
28935;BME280;16044;52.726;-2.108;2023-09-30T07:24:05;101443.56;;;11.91;100.00
28935;BME280;16044;52.726;-2.108;2023-09-30T07:26:39;101443.44;;;12.01;100.00
28935;BME280;16044;52.726;-2.108;2023-09-30T07:29:09;101439.03;;;12.08;100.00
28935;BME280;16044;52.726;-2.108;2023-09-30T07:31:40;101448.22;;;12.15;100.00
28935;BME280;16044;52.726;-2.108;2023-09-30T07:34:10;101444.88;;;12.21;100.00
28935;BME280;16044;52.726;-2.108;2023-09-30T07:36:41;101439.09;;;12.24;100.00
28935;BME280;16044;52.726;-2.108;2023-09-30T07:39:11;101445.06;;;12.28;100.00
28935;BME280;16044;52.726;-2.108;2023-09-30T07:41:44;101453.56;;;12.33;100.00
28935;BME280;16044;52.726;-2.108;2023-09-30T07:44:15;101448.31;;;12.40;100.00
28935;BME280;16044;52.726;-2.108;2023-09-30T07:46:45;101458.88;;;12.43;100.00
28935;BME280;16044;52.726;-2.108;2023-09-30T07:49:15;101461.94;;;12.48;100.00
28935;BME280;16044;52.726;-2.108;2023-09-30T07:51:46;101464.16;;;12.53;100.00
28935;BME280;16044;52.726;-2.108;2023-09-30T07:54:16;101462.66;;;12.58;100.00
28935;BME280;16044;52.726;-2.108;2023-09-30T07:57:00;101455.53;;;12.65;100.00
28935;BME280;16044;52.726;-2.108;2023-09-30T07:59:30;101456.41;;;12.74;100.00
28935;BME280;16044;52.726;-2.108;2023-09-30T08:02:01;101456.56;;;12.81;100.00
28935;BME280;16044;52.726;-2.108;2023-09-30T08:04:33;101465.78;;;12.88;100.00
28935;BME280;16044;52.726;-2.108;2023-09-30T08:07:04;101465.78;;;12.96;100.00
28935;BME280;16044;52.726;-2.108;2023-09-30T08:09:36;101470.56;;;13.02;100.00
28935;BME280;16044;52.726;-2.108;2023-09-30T08:12:09;101469.03;;;13.08;100.00
28935;BME280;16044;52.726;-2.108;2023-09-30T08:14:39;101460.03;;;13.16;100.00
28935;BME280;16044;52.726;-2.108;2023-09-30T08:17:11;101464.94;;;13.29;100.00
28935;BME280;16044;52.726;-2.108;2023-09-30T08:19:42;101469.56;;;13.44;100.00
28935;BME280;16044;52.726;-2.108;2023-09-30T08:22:13;101466.50;;;13.56;100.00
28935;BME280;16044;52.726;-2.108;2023-09-30T08:24:44;101467.16;;;13.66;100.00
28935;BME280;16044;52.726;-2.108;2023-09-30T08:27:17;101485.34;;;13.74;100.00
28935;BME280;16044;52.726;-2.108;2023-09-30T08:29:47;101476.50;;;13.80;100.00
28935;BME280;16044;52.726;-2.108;2023-09-30T08:32:17;101452.94;;;13.87;100.00
28935;BME280;16044;52.726;-2.108;2023-09-30T08:34:48;101445.78;;;13.94;100.00
28935;BME280;16044;52.726;-2.108;2023-09-30T08:37:18;101432.44;;;14.08;100.00
28935;BME280;16044;52.726;-2.108;2023-09-30T08:39:49;101422.19;;;14.18;100.00
28935;BME280;16044;52.726;-2.108;2023-09-30T08:42:22;101416.53;;;14.28;100.00
28935;BME280;16044;52.726;-2.108;2023-09-30T08:44:56;101431.16;;;14.35;100.00
28935;BME280;16044;52.726;-2.108;2023-09-30T08:47:27;101438.59;;;14.41;100.00
28935;BME280;16044;52.726;-2.108;2023-09-30T08:49:59;101432.44;;;14.47;100.00
28935;BME280;16044;52.726;-2.108;2023-09-30T08:52:33;101436.97;;;14.55;100.00
28935;BME280;16044;52.726;-2.108;2023-09-30T08:55:08;101432.72;;;14.60;100.00
28935;BME280;16044;52.726;-2.108;2023-09-30T08:57:42;101441.03;;;14.67;100.00
28935;BME280;16044;52.726;-2.108;2023-09-30T09:00:13;101440.50;;;14.72;100.00
28935;BME280;16044;52.726;-2.108;2023-09-30T09:02:44;101434.69;;;14.75;100.00
28935;BME280;16044;52.726;-2.108;2023-09-30T09:05:14;101434.31;;;14.78;100.00
28935;BME280;16044;52.726;-2.108;2023-09-30T09:07:45;101426.59;;;14.81;100.00
28935;BME280;16044;52.726;-2.108;2023-09-30T09:10:17;101432.94;;;14.82;100.00
28935;BME280;16044;52.726;-2.108;2023-09-30T09:12:56;101431.41;;;14.79;100.00
28935;BME280;16044;52.726;-2.108;2023-09-30T09:15:28;101427.47;;;14.82;100.00
28935;BME280;16044;52.726;-2.108;2023-09-30T09:17:59;101417.22;;;14.84;100.00
28935;BME280;16044;52.726;-2.108;2023-09-30T09:20:29;101429.81;;;14.85;100.00
28935;BME280;16044;52.726;-2.108;2023-09-30T09:23:01;101436.81;;;14.88;100.00
28935;BME280;16044;52.726;-2.108;2023-09-30T09:25:38;101441.22;;;14.89;100.00
28935;BME280;16044;52.726;-2.108;2023-09-30T09:28:11;101455.19;;;14.94;100.00
28935;BME280;16044;52.726;-2.108;2023-09-30T09:30:41;101443.03;;;14.96;100.00
28935;BME280;16044;52.726;-2.108;2023-09-30T09:33:12;101445.91;;;15.03;100.00
28935;BME280;16044;52.726;-2.108;2023-09-30T09:35:48;101443.28;;;15.10;100.00
28935;BME280;16044;52.726;-2.108;2023-09-30T09:38:18;101437.06;;;15.16;100.00
28935;BME280;16044;52.726;-2.108;2023-09-30T09:40:48;101439.94;;;15.23;100.00
28935;BME280;16044;52.726;-2.108;2023-09-30T09:43:21;101444.66;;;15.29;100.00
28935;BME280;16044;52.726;-2.108;2023-09-30T09:45:52;101443.25;;;15.33;100.00
28935;BME280;16044;52.726;-2.108;2023-09-30T09:48:25;101433.47;;;15.38;100.00
28935;BME280;16044;52.726;-2.108;2023-09-30T09:50:56;101424.91;;;15.42;100.00
28935;BME280;16044;52.726;-2.108;2023-09-30T09:53:29;101423.50;;;15.46;100.00
28935;BME280;16044;52.726;-2.108;2023-09-30T09:56:00;101421.06;;;15.51;100.00
28935;BME280;16044;52.726;-2.108;2023-09-30T09:58:35;101411.44;;;15.55;100.00
28935;BME280;16044;52.726;-2.108;2023-09-30T10:01:09;101409.00;;;15.60;100.00
28935;BME280;16044;52.726;-2.108;2023-09-30T10:03:39;101402.97;;;15.65;100.00
28935;BME280;16044;52.726;-2.108;2023-09-30T10:06:11;101395.91;;;15.70;100.00
28935;BME280;16044;52.726;-2.108;2023-09-30T10:08:44;101395.19;;;15.76;100.00
28935;BME280;16044;52.726;-2.108;2023-09-30T10:11:17;101391.53;;;15.84;100.00
28935;BME280;16044;52.726;-2.108;2023-09-30T10:13:55;101386.50;;;15.88;100.00
28935;BME280;16044;52.726;-2.108;2023-09-30T10:16:48;101381.97;;;15.95;100.00
28935;BME280;16044;52.726;-2.108;2023-09-30T10:19:22;101390.47;;;16.00;99.54
28935;BME280;16044;52.726;-2.108;2023-09-30T10:22:22;101386.69;;;16.01;98.07
28935;BME280;16044;52.726;-2.108;2023-09-30T10:24:54;101376.66;;;16.08;97.61
28935;BME280;16044;52.726;-2.108;2023-09-30T10:27:35;101373.56;;;16.11;98.13
28935;BME280;16044;52.726;-2.108;2023-09-30T10:30:14;101379.31;;;16.16;97.82
28935;BME280;16044;52.726;-2.108;2023-09-30T10:33:08;101382.69;;;16.18;97.05
28935;BME280;16044;52.726;-2.108;2023-09-30T10:35:47;101393.25;;;16.22;96.52
28935;BME280;16044;52.726;-2.108;2023-09-30T10:38:39;101388.16;;;16.18;96.31
28935;BME280;16044;52.726;-2.108;2023-09-30T10:41:10;101395.59;;;16.25;96.39
28935;BME280;16044;52.726;-2.108;2023-09-30T10:43:41;101393.53;;;16.27;95.68
28935;BME280;16044;52.726;-2.108;2023-09-30T10:46:32;101382.84;;;16.32;95.56
28935;BME280;16044;52.726;-2.108;2023-09-30T10:49:30;101375.94;;;16.36;92.72
28935;BME280;16044;52.726;-2.108;2023-09-30T10:52:06;101380.66;;;16.42;93.12
28935;BME280;16044;52.726;-2.108;2023-09-30T10:54:37;101378.84;;;16.49;93.31
28935;BME280;16044;52.726;-2.108;2023-09-30T10:57:10;101375.50;;;16.54;92.13
28935;BME280;16044;52.726;-2.108;2023-09-30T10:59:40;101361.25;;;16.59;92.05
28935;BME280;16044;52.726;-2.108;2023-09-30T11:02:21;101355.63;;;16.67;92.35
28935;BME280;16044;52.726;-2.108;2023-09-30T11:04:53;101355.91;;;16.72;92.45
28935;BME280;16044;52.726;-2.108;2023-09-30T11:07:24;101342.06;;;16.80;92.00
28935;BME280;16044;52.726;-2.108;2023-09-30T11:09:56;101327.84;;;16.85;90.89
28935;BME280;16044;52.726;-2.108;2023-09-30T11:12:26;101317.53;;;16.87;89.15
28935;BME280;16044;52.726;-2.108;2023-09-30T11:15:00;101319.00;;;16.89;88.11
28935;BME280;16044;52.726;-2.108;2023-09-30T11:17:34;101321.63;;;16.98;88.60
28935;BME280;16044;52.726;-2.108;2023-09-30T11:20:06;101331.78;;;17.04;88.25
28935;BME280;16044;52.726;-2.108;2023-09-30T11:22:37;101328.63;;;17.07;87.85
28935;BME280;16044;52.726;-2.108;2023-09-30T11:25:15;101322.38;;;17.13;87.19
28935;BME280;16044;52.726;-2.108;2023-09-30T11:27:46;101317.72;;;17.13;87.02
28935;BME280;16044;52.726;-2.108;2023-09-30T11:30:17;101325.03;;;17.06;86.32
28935;BME280;16044;52.726;-2.108;2023-09-30T11:32:58;101320.00;;;17.10;86.18
28935;BME280;16044;52.726;-2.108;2023-09-30T11:35:29;101309.91;;;17.10;85.89
28935;BME280;16044;52.726;-2.108;2023-09-30T11:38:00;101312.19;;;17.07;85.29
28935;BME280;16044;52.726;-2.108;2023-09-30T11:40:30;101324.19;;;17.06;85.88
28935;BME280;16044;52.726;-2.108;2023-09-30T11:43:07;101327.13;;;17.04;85.75
28935;BME280;16044;52.726;-2.108;2023-09-30T11:45:39;101327.97;;;17.05;86.00
28935;BME280;16044;52.726;-2.108;2023-09-30T11:48:20;101321.47;;;17.06;86.34
28935;BME280;16044;52.726;-2.108;2023-09-30T11:50:50;101327.13;;;17.04;85.92
28935;BME280;16044;52.726;-2.108;2023-09-30T11:53:24;101334.31;;;17.05;85.83
28935;BME280;16044;52.726;-2.108;2023-09-30T11:55:55;101324.19;;;17.06;85.81
28935;BME280;16044;52.726;-2.108;2023-09-30T11:58:26;101329.50;;;17.07;85.84
28935;BME280;16044;52.726;-2.108;2023-09-30T12:00:59;101341.66;;;17.05;85.70
28935;BME280;16044;52.726;-2.108;2023-09-30T12:03:32;101341.47;;;17.06;85.55
28935;BME280;16044;52.726;-2.108;2023-09-30T12:06:06;101341.66;;;17.05;85.56
28935;BME280;16044;52.726;-2.108;2023-09-30T12:08:40;101341.03;;;17.03;86.11
28935;BME280;16044;52.726;-2.108;2023-09-30T12:11:11;101334.72;;;17.02;86.51
28935;BME280;16044;52.726;-2.108;2023-09-30T12:13:43;101325.41;;;16.97;87.26
28935;BME280;16044;52.726;-2.108;2023-09-30T12:16:16;101336.72;;;16.93;87.77
28935;BME280;16044;52.726;-2.108;2023-09-30T12:18:50;101346.00;;;16.92;87.93
28935;BME280;16044;52.726;-2.108;2023-09-30T12:21:21;101347.47;;;16.88;88.64
28935;BME280;16044;52.726;-2.108;2023-09-30T12:23:51;101351.22;;;16.87;89.22
28935;BME280;16044;52.726;-2.108;2023-09-30T12:26:22;101360.41;;;16.80;89.75
28935;BME280;16044;52.726;-2.108;2023-09-30T12:28:53;101355.09;;;16.78;89.73
28935;BME280;16044;52.726;-2.108;2023-09-30T12:31:23;101359.56;;;16.79;89.38
28935;BME280;16044;52.726;-2.108;2023-09-30T12:34:06;101351.25;;;16.72;89.92
28935;BME280;16044;52.726;-2.108;2023-09-30T12:36:40;101326.63;;;16.72;90.39
28935;BME280;16044;52.726;-2.108;2023-09-30T12:39:11;101314.19;;;16.70;91.09
28935;BME280;16044;52.726;-2.108;2023-09-30T12:41:44;101328.66;;;16.64;91.45
28935;BME280;16044;52.726;-2.108;2023-09-30T12:44:14;101328.41;;;16.59;91.81
28935;BME280;16044;52.726;-2.108;2023-09-30T12:46:46;101314.44;;;16.53;92.42
28935;BME280;16044;52.726;-2.108;2023-09-30T12:49:19;101316.94;;;16.48;92.78
28935;BME280;16044;52.726;-2.108;2023-09-30T12:51:50;101310.16;;;16.44;93.60
28935;BME280;16044;52.726;-2.108;2023-09-30T12:54:20;101314.31;;;16.40;94.11
28935;BME280;16044;52.726;-2.108;2023-09-30T12:56:51;101297.00;;;16.33;94.98
28935;BME280;16044;52.726;-2.108;2023-09-30T12:59:21;101286.91;;;16.33;95.37